createdAt,value
2022-10-06T00:00:47.622Z,11.60
2022-10-06T00:03:30.478Z,11.60
2022-10-06T00:06:01.370Z,11.54
2022-10-06T00:08:29.456Z,11.52
2022-10-06T00:10:56.239Z,11.50
2022-10-06T00:13:23.630Z,11.50
2022-10-06T00:15:50.149Z,11.58
2022-10-06T00:18:16.586Z,11.60
2022-10-06T00:20:42.953Z,11.60
2022-10-06T00:23:09.660Z,11.60
2022-10-06T00:25:36.084Z,11.60
2022-10-06T00:28:02.629Z,11.60
2022-10-06T00:30:30.641Z,11.62
2022-10-06T00:33:01.533Z,11.60
2022-10-06T00:35:33.893Z,11.60
2022-10-06T00:38:00.845Z,11.60
2022-10-06T00:40:27.503Z,11.60
2022-10-06T00:43:05.289Z,11.60
2022-10-06T00:45:45.852Z,11.60
2022-10-06T00:48:18.419Z,11.60
2022-10-06T00:50:45.150Z,11.52
2022-10-06T00:53:11.508Z,11.50
2022-10-06T00:55:38.204Z,11.52
2022-10-06T00:58:04.569Z,11.50
2022-10-06T01:00:31.012Z,11.50
2022-10-06T01:03:02.089Z,11.50
2022-10-06T01:05:34.662Z,11.50
2022-10-06T01:08:01.042Z,11.40
2022-10-06T01:10:27.432Z,11.40
2022-10-06T01:12:54.738Z,11.40
2022-10-06T01:15:21.163Z,11.38
2022-10-06T01:17:53.664Z,11.40
2022-10-06T01:20:20.487Z,11.40
2022-10-06T01:22:57.729Z,11.40
2022-10-06T01:25:24.114Z,11.40
2022-10-06T01:27:53.177Z,11.40
2022-10-06T01:30:26.524Z,11.40
2022-10-06T01:32:52.862Z,11.40
2022-10-06T01:35:20.936Z,11.40
2022-10-06T01:37:47.352Z,11.40
2022-10-06T01:40:13.966Z,11.40
2022-10-06T01:42:40.668Z,11.42
2022-10-06T01:45:07.701Z,11.50
2022-10-06T01:47:34.661Z,11.50
2022-10-06T01:50:01.415Z,11.50
2022-10-06T01:52:29.127Z,11.50
2022-10-06T01:54:55.726Z,11.48
2022-10-06T01:57:22.690Z,11.42
2022-10-06T01:59:54.437Z,11.46
2022-10-06T02:02:22.635Z,11.46
2022-10-06T02:04:49.011Z,11.48
2022-10-06T02:07:15.544Z,11.44
2022-10-06T02:09:44.738Z,11.50
2022-10-06T02:12:11.217Z,11.48
2022-10-06T02:14:40.221Z,11.50
2022-10-06T02:17:06.669Z,11.50
2022-10-06T02:19:33.022Z,11.50
2022-10-06T02:21:59.454Z,11.50
2022-10-06T02:24:25.938Z,11.50
2022-10-06T02:26:52.943Z,11.50
2022-10-06T02:29:19.927Z,11.46
2022-10-06T02:31:46.829Z,11.44
2022-10-06T02:34:13.649Z,11.40
2022-10-06T02:36:39.994Z,11.40
2022-10-06T02:39:06.572Z,11.40
2022-10-06T02:41:33.033Z,11.40
2022-10-06T02:43:59.656Z,11.40
2022-10-06T02:46:26.395Z,11.40
2022-10-06T02:48:53.248Z,11.42
2022-10-06T02:51:20.956Z,11.50
2022-10-06T02:53:48.269Z,11.50
2022-10-06T02:56:24.511Z,11.50
2022-10-06T02:58:51.767Z,11.50
2022-10-06T03:01:25.077Z,11.50
2022-10-06T03:03:52.479Z,11.50
2022-10-06T03:06:21.809Z,11.50
2022-10-06T03:08:58.342Z,11.50
2022-10-06T03:11:30.757Z,11.50
2022-10-06T03:13:57.566Z,11.58
2022-10-06T03:16:29.524Z,11.60
2022-10-06T03:18:57.700Z,11.60
2022-10-06T03:21:26.942Z,11.60
2022-10-06T03:23:53.770Z,11.62
2022-10-06T03:26:23.845Z,11.62
2022-10-06T03:28:50.344Z,11.68
2022-10-06T03:31:17.284Z,11.66
2022-10-06T03:33:43.851Z,11.60
2022-10-06T03:36:13.311Z,11.60
2022-10-06T03:38:40.076Z,11.60
2022-10-06T03:41:14.214Z,11.60
2022-10-06T03:43:45.970Z,11.60
2022-10-06T03:46:14.630Z,11.58
2022-10-06T03:48:41.422Z,11.50
2022-10-06T03:51:10.883Z,11.50
2022-10-06T03:53:37.740Z,11.50
2022-10-06T03:56:09.953Z,11.50
2022-10-06T03:58:40.832Z,11.40
2022-10-06T04:01:08.273Z,11.40
2022-10-06T04:03:35.095Z,11.40
2022-10-06T04:06:04.749Z,11.40
2022-10-06T04:08:33.130Z,11.40
2022-10-06T04:11:11.991Z,11.40
2022-10-06T04:13:39.024Z,11.40
2022-10-06T04:16:17.513Z,11.30
2022-10-06T04:18:46.111Z,11.30
2022-10-06T04:21:12.925Z,11.30
2022-10-06T04:23:40.661Z,11.30
2022-10-06T04:26:11.769Z,11.34
2022-10-06T04:28:38.736Z,11.30
2022-10-06T04:31:20.189Z,11.34
2022-10-06T04:33:47.696Z,11.36
2022-10-06T04:36:24.785Z,11.34
2022-10-06T04:38:55.708Z,11.40
2022-10-06T04:41:28.266Z,11.40
2022-10-06T04:43:54.981Z,11.40
2022-10-06T04:49:12.281Z,11.40
2022-10-06T04:51:41.305Z,11.40
2022-10-06T04:54:07.668Z,11.40
2022-10-06T04:56:34.926Z,11.48
2022-10-06T04:59:03.194Z,11.50
2022-10-06T05:01:36.180Z,11.50
2022-10-06T05:04:06.976Z,11.50
2022-10-06T05:06:40.378Z,11.50
2022-10-06T05:09:12.472Z,11.54
2022-10-06T05:11:43.749Z,11.60
2022-10-06T05:14:12.841Z,11.60
2022-10-06T05:16:42.764Z,11.66
2022-10-06T05:19:10.975Z,11.70
2022-10-06T05:21:38.547Z,11.72
2022-10-06T05:24:06.225Z,11.80
2022-10-06T05:26:34.246Z,11.88
2022-10-06T05:29:01.910Z,11.98
2022-10-06T05:31:31.001Z,12.00
2022-10-06T05:33:58.580Z,12.10
2022-10-06T05:36:29.287Z,12.20
2022-10-06T05:38:56.824Z,12.30
2022-10-06T05:41:25.913Z,12.38
2022-10-06T05:43:52.754Z,12.40
2022-10-06T05:46:30.318Z,12.40
2022-10-06T05:49:02.852Z,12.40
2022-10-06T05:51:32.704Z,12.50
2022-10-06T05:54:02.023Z,12.50
2022-10-06T05:56:33.541Z,12.60
2022-10-06T05:59:02.094Z,12.70
2022-10-06T06:01:30.778Z,12.70
2022-10-06T06:03:59.704Z,12.72
2022-10-06T06:06:32.729Z,12.80
2022-10-06T06:09:08.477Z,12.96
2022-10-06T06:11:37.581Z,13.10
2022-10-06T06:14:12.708Z,13.14
2022-10-06T06:16:40.221Z,13.20
2022-10-06T06:19:08.120Z,13.24
2022-10-06T06:21:36.191Z,13.30
2022-10-06T06:24:03.776Z,13.40
2022-10-06T06:26:34.573Z,13.42
2022-10-06T06:29:04.611Z,13.50
2022-10-06T06:31:35.638Z,13.60
2022-10-06T06:34:04.119Z,13.60
2022-10-06T06:36:34.956Z,13.68
2022-10-06T06:39:05.441Z,13.70
2022-10-06T06:41:37.129Z,13.78
2022-10-06T06:44:10.772Z,13.80
2022-10-06T06:46:44.202Z,13.80
2022-10-06T06:49:16.159Z,13.88
2022-10-06T06:51:49.518Z,13.90
2022-10-06T06:54:17.756Z,14.00
2022-10-06T06:56:48.218Z,14.10
2022-10-06T06:59:17.706Z,14.14
2022-10-06T07:01:48.286Z,14.20
2022-10-06T07:04:17.885Z,14.30
2022-10-06T07:06:57.720Z,14.34
2022-10-06T07:09:27.436Z,14.40
2022-10-06T07:12:00.142Z,14.50
2022-10-06T07:14:26.577Z,14.54
2022-10-06T07:17:12.271Z,14.60
2022-10-06T07:20:00.812Z,14.60
2022-10-06T07:22:49.261Z,14.70
2022-10-06T07:25:25.594Z,14.74
2022-10-06T07:28:01.872Z,14.80
2022-10-06T07:30:34.139Z,14.90
2022-10-06T07:33:06.611Z,15.00
2022-10-06T07:35:33.408Z,15.00
2022-10-06T07:38:07.252Z,15.00
2022-10-06T07:40:40.215Z,15.00
2022-10-06T07:43:12.983Z,15.18
2022-10-06T07:45:44.344Z,15.22
2022-10-06T07:48:21.209Z,15.40
2022-10-06T07:50:57.328Z,15.50
2022-10-06T07:53:31.873Z,15.78
2022-10-06T07:56:16.895Z,16.14
2022-10-06T07:58:48.146Z,16.30
2022-10-06T08:01:17.835Z,16.42
2022-10-06T08:03:45.614Z,16.60
2022-10-06T08:06:15.114Z,16.70
2022-10-06T08:08:42.505Z,16.70
2022-10-06T08:11:09.318Z,16.70
2022-10-06T08:13:36.930Z,16.70
2022-10-06T08:16:10.952Z,16.70
2022-10-06T08:18:46.842Z,16.80
2022-10-06T08:21:19.121Z,16.80
2022-10-06T08:23:46.880Z,16.90
2022-10-06T08:26:14.438Z,17.00
2022-10-06T08:28:50.339Z,17.04
2022-10-06T08:31:18.364Z,17.12
2022-10-06T08:33:45.316Z,17.20
2022-10-06T08:36:14.662Z,17.30
2022-10-06T08:38:41.897Z,17.40
2022-10-06T08:41:35.872Z,17.40
2022-10-06T08:44:07.254Z,17.44
2022-10-06T08:46:39.787Z,17.50
2022-10-06T08:49:06.415Z,17.60
2022-10-06T08:51:47.434Z,17.68
2022-10-06T08:54:36.439Z,17.70
2022-10-06T08:57:51.986Z,17.70
2022-10-06T09:00:22.035Z,17.90
2022-10-06T09:02:49.326Z,17.90
2022-10-06T09:05:24.921Z,18.00
2022-10-06T09:08:15.714Z,18.00
2022-10-06T09:11:09.973Z,18.00
2022-10-06T09:13:42.000Z,18.10
2022-10-06T09:16:10.773Z,18.20
2022-10-06T09:19:08.226Z,18.28
2022-10-06T09:21:46.201Z,18.30
2022-10-06T09:24:46.992Z,18.30
2022-10-06T09:27:33.158Z,18.40
2022-10-06T09:30:00.663Z,18.50
2022-10-06T09:32:28.086Z,18.60
2022-10-06T09:34:59.024Z,18.70
2022-10-06T09:37:26.039Z,18.80
2022-10-06T09:39:52.642Z,18.80
2022-10-06T09:42:25.699Z,18.86
2022-10-06T09:45:00.446Z,19.10
2022-10-06T09:47:38.709Z,19.20
2022-10-06T09:50:27.940Z,19.26
2022-10-06T09:52:57.424Z,19.40
2022-10-06T09:55:27.926Z,19.30
2022-10-06T09:57:55.566Z,19.20
2022-10-06T10:00:36.326Z,19.20
2022-10-06T10:03:07.632Z,19.20
2022-10-06T10:05:40.882Z,19.20
2022-10-06T10:08:13.378Z,19.30
2022-10-06T10:10:40.546Z,19.30
2022-10-06T10:13:42.607Z,19.20
2022-10-06T10:16:18.616Z,19.00
2022-10-06T10:18:46.358Z,19.00
2022-10-06T10:21:12.677Z,18.90
2022-10-06T10:23:42.019Z,18.80
2022-10-06T10:26:40.600Z,18.90
2022-10-06T10:30:01.128Z,18.96
2022-10-06T10:32:37.213Z,19.00
2022-10-06T10:35:24.838Z,19.00
2022-10-06T10:38:24.111Z,18.90
2022-10-06T10:41:04.098Z,18.90
2022-10-06T10:43:42.633Z,19.00
2022-10-06T10:46:28.164Z,19.10
2022-10-06T10:48:57.629Z,19.20
2022-10-06T10:51:33.911Z,19.30
2022-10-06T10:54:05.339Z,19.30
2022-10-06T10:56:32.679Z,19.40
2022-10-06T10:59:44.539Z,19.50
2022-10-06T11:02:21.611Z,19.60
2022-10-06T11:04:51.792Z,19.70
2022-10-06T11:07:39.243Z,19.80
2022-10-06T11:10:24.775Z,19.80
2022-10-06T11:13:10.536Z,19.80
2022-10-06T11:16:15.601Z,19.80
2022-10-06T11:18:57.485Z,19.64
2022-10-06T11:21:39.098Z,19.44
2022-10-06T11:24:28.649Z,19.46
2022-10-06T11:27:07.695Z,19.60
2022-10-06T11:30:14.280Z,19.76
2022-10-06T11:33:00.703Z,19.80
2022-10-06T11:35:34.443Z,19.90
2022-10-06T11:38:21.668Z,19.90
2022-10-06T11:41:13.345Z,19.90
2022-10-06T11:47:35.514Z,20.10
2022-10-06T11:50:11.893Z,20.08
2022-10-06T11:52:43.856Z,19.96
2022-10-06T11:55:15.460Z,19.80
2022-10-06T11:58:29.931Z,19.60
2022-10-06T12:00:55.236Z,19.32
2022-10-06T12:03:27.711Z,19.20
2022-10-06T12:05:56.664Z,19.12
2022-10-06T12:08:37.685Z,19.08
2022-10-06T12:11:40.807Z,19.00
2022-10-06T12:16:35.309Z,19.06
2022-10-06T12:17:40.254Z,19.00
2022-10-06T12:20:27.992Z,19.10
2022-10-06T12:23:08.463Z,19.20
2022-10-06T12:25:57.890Z,19.30
2022-10-06T12:29:10.342Z,19.30
2022-10-06T12:32:02.304Z,19.20
2022-10-06T12:35:24.135Z,19.20
2022-10-06T12:37:54.455Z,19.20
2022-10-06T12:40:47.578Z,19.22
2022-10-06T12:43:13.972Z,19.40
2022-10-06T12:45:54.506Z,19.50
2022-10-06T12:48:26.386Z,19.70
2022-10-06T12:50:57.814Z,19.80
2022-10-06T12:53:33.044Z,19.90
2022-10-06T12:56:09.328Z,19.84
2022-10-06T12:58:35.777Z,19.78
2022-10-06T13:01:04.382Z,19.68
2022-10-06T13:03:30.862Z,19.60
2022-10-06T13:06:03.585Z,19.52
2022-10-06T13:08:34.895Z,19.50
2022-10-06T13:11:20.435Z,19.40
2022-10-06T13:14:05.859Z,19.40
2022-10-06T13:16:32.743Z,19.38
2022-10-06T13:19:00.570Z,19.40
2022-10-06T13:21:29.041Z,19.46
2022-10-06T13:23:55.657Z,19.40
2022-10-06T13:26:24.781Z,19.30
2022-10-06T13:28:55.465Z,19.20
2022-10-06T13:31:26.578Z,19.20
2022-10-06T13:34:16.224Z,19.10
2022-10-06T13:36:44.833Z,19.20
2022-10-06T13:39:21.673Z,19.20
2022-10-06T13:42:02.763Z,19.30
2022-10-06T13:44:47.285Z,19.50
2022-10-06T13:47:15.312Z,19.50
2022-10-06T13:49:56.577Z,19.44
2022-10-06T13:52:39.549Z,19.40
2022-10-06T13:55:26.638Z,19.40
2022-10-06T13:57:56.106Z,19.40
2022-10-06T14:00:29.810Z,19.42
2022-10-06T14:03:08.886Z,19.30
2022-10-06T14:05:42.889Z,19.14
2022-10-06T14:08:09.216Z,19.10
2022-10-06T14:10:59.584Z,19.06
2022-10-06T14:13:26.605Z,19.10
2022-10-06T14:15:57.030Z,19.00
2022-10-06T14:18:30.508Z,18.90
2022-10-06T14:20:57.026Z,18.90
2022-10-06T14:23:43.514Z,18.80
2022-10-06T14:26:12.372Z,18.66
2022-10-06T14:28:40.063Z,18.50
2022-10-06T14:31:08.718Z,18.40
2022-10-06T14:33:38.484Z,18.40
2022-10-06T14:36:05.197Z,18.40
2022-10-06T14:38:31.619Z,18.40
2022-10-06T14:41:01.974Z,18.34
2022-10-06T14:43:28.422Z,18.26
2022-10-06T14:45:55.115Z,18.16
2022-10-06T14:48:21.626Z,18.02
2022-10-06T14:50:48.849Z,18.00
2022-10-06T14:53:16.590Z,18.00
2022-10-06T14:55:43.996Z,17.90
2022-10-06T14:58:10.532Z,17.90
2022-10-06T15:00:38.661Z,17.90
2022-10-06T15:03:05.484Z,17.84
2022-10-06T15:05:31.973Z,17.80
2022-10-06T15:08:10.405Z,17.76
2022-10-06T15:10:38.320Z,17.70
2022-10-06T15:13:08.582Z,17.62
2022-10-06T15:15:35.495Z,17.60
2022-10-06T15:18:03.039Z,17.50
2022-10-06T15:20:29.428Z,17.40
2022-10-06T15:22:55.928Z,17.40
2022-10-06T15:25:40.771Z,17.30
2022-10-06T15:28:30.246Z,17.22
2022-10-06T15:30:56.731Z,17.20
2022-10-06T15:33:23.153Z,17.10
2022-10-06T15:36:18.907Z,17.00
2022-10-06T15:38:45.306Z,16.94
2022-10-06T15:41:12.063Z,16.90
2022-10-06T15:43:57.004Z,16.80
2022-10-06T15:46:27.581Z,16.70
2022-10-06T15:49:00.412Z,16.60
2022-10-06T15:51:29.141Z,16.50
2022-10-06T15:53:57.284Z,16.40
2022-10-06T15:56:25.674Z,16.40
2022-10-06T15:58:52.143Z,16.30
2022-10-06T16:01:33.728Z,16.20
2022-10-06T16:04:08.264Z,16.10
2022-10-06T16:06:40.246Z,16.00
2022-10-06T16:09:08.791Z,15.92
2022-10-06T16:11:35.347Z,15.80
2022-10-06T16:14:01.749Z,15.70
2022-10-06T16:16:28.397Z,15.60
2022-10-06T16:18:54.975Z,15.50
2022-10-06T16:21:21.348Z,15.46
2022-10-06T16:23:51.925Z,15.40
2022-10-06T16:26:19.163Z,15.30
2022-10-06T16:28:45.899Z,15.20
2022-10-06T16:31:12.352Z,15.12
2022-10-06T16:33:38.795Z,15.10
2022-10-06T16:36:05.592Z,15.00
2022-10-06T16:38:31.934Z,14.94
2022-10-06T16:41:02.619Z,14.90
2022-10-06T16:43:37.206Z,14.80
2022-10-06T16:46:09.212Z,14.70
2022-10-06T16:48:39.223Z,14.70
2022-10-06T16:51:20.516Z,14.60
2022-10-06T16:53:51.519Z,14.50
2022-10-06T16:56:20.218Z,14.40
2022-10-06T16:58:49.676Z,14.40
2022-10-06T17:01:16.895Z,14.30
2022-10-06T17:03:43.819Z,14.30
2022-10-06T17:06:12.136Z,14.20
2022-10-06T17:08:39.262Z,14.20
2022-10-06T17:11:13.900Z,14.10
2022-10-06T17:13:43.079Z,14.08
2022-10-06T17:16:15.371Z,14.00
2022-10-06T17:18:41.872Z,13.90
2022-10-06T17:21:26.144Z,13.84
2022-10-06T17:24:00.218Z,13.80
2022-10-06T17:26:28.939Z,13.70
2022-10-06T17:28:59.994Z,13.70
2022-10-06T17:31:38.893Z,13.70
2022-10-06T17:34:09.310Z,13.70
2022-10-06T17:36:37.450Z,13.60
2022-10-06T17:39:05.189Z,13.60
2022-10-06T17:41:40.368Z,13.60
2022-10-06T17:44:21.733Z,13.60
2022-10-06T17:46:50.361Z,13.56
2022-10-06T17:49:19.965Z,13.50
2022-10-06T17:51:49.873Z,13.50
2022-10-06T17:54:19.322Z,13.50
2022-10-06T17:56:47.840Z,13.42
2022-10-06T17:59:20.961Z,13.40
2022-10-06T18:01:47.508Z,13.40
2022-10-06T18:04:16.873Z,13.30
2022-10-06T18:06:44.542Z,13.30
2022-10-06T18:09:11.273Z,13.26
2022-10-06T18:11:38.973Z,13.20
2022-10-06T18:14:11.901Z,13.20
2022-10-06T18:16:44.670Z,13.10
2022-10-06T18:19:16.637Z,13.08
2022-10-06T18:21:44.737Z,13.00
2022-10-06T18:24:16.594Z,12.90
2022-10-06T18:26:47.678Z,12.80
2022-10-06T18:29:18.005Z,12.70
2022-10-06T18:31:44.704Z,12.70
2022-10-06T18:36:57.916Z,12.70
2022-10-06T18:39:24.807Z,12.70
2022-10-06T18:41:51.469Z,12.66
2022-10-06T18:44:40.631Z,12.62
2022-10-06T18:47:25.654Z,12.60
2022-10-06T18:49:52.419Z,12.60
2022-10-06T18:52:20.942Z,12.60
2022-10-06T18:54:48.241Z,12.60
2022-10-06T18:57:14.570Z,12.60
2022-10-06T18:59:41.004Z,12.60
2022-10-06T19:02:07.541Z,12.60
2022-10-06T19:04:38.556Z,12.58
2022-10-06T19:07:05.079Z,12.50
2022-10-06T19:09:31.414Z,12.50
2022-10-06T19:11:58.188Z,12.50
2022-10-06T19:14:31.080Z,12.50
2022-10-06T19:16:59.416Z,12.40
2022-10-06T19:19:26.657Z,12.40
2022-10-06T19:22:04.384Z,12.38
2022-10-06T19:24:34.380Z,12.30
2022-10-06T19:27:01.380Z,12.30
2022-10-06T19:29:27.977Z,12.20
2022-10-06T19:31:57.406Z,12.16
2022-10-06T19:34:24.034Z,12.10
2022-10-06T19:36:52.387Z,12.10
2022-10-06T19:39:24.633Z,12.00
2022-10-06T19:42:10.168Z,12.00
2022-10-06T19:44:42.620Z,12.00
2022-10-06T19:47:12.264Z,11.98
2022-10-06T19:49:38.760Z,11.94
2022-10-06T19:52:07.493Z,11.90
2022-10-06T19:54:34.236Z,11.90
2022-10-06T19:57:05.188Z,11.90
2022-10-06T19:59:32.005Z,11.82
2022-10-06T20:01:58.462Z,11.80
2022-10-06T20:04:24.998Z,11.80
2022-10-06T20:06:51.581Z,11.74
2022-10-06T20:09:20.617Z,11.70
2022-10-06T20:11:48.450Z,11.70
2022-10-06T20:14:21.045Z,11.60
2022-10-06T20:16:49.838Z,11.60
2022-10-06T20:19:16.723Z,11.60
2022-10-06T20:21:43.219Z,11.52
2022-10-06T20:24:18.282Z,11.50
2022-10-06T20:26:47.237Z,11.50
2022-10-06T20:29:15.357Z,11.50
2022-10-06T20:31:47.180Z,11.46
2022-10-06T20:34:19.416Z,11.40
2022-10-06T20:36:46.146Z,11.40
2022-10-06T20:39:37.412Z,11.36
2022-10-06T20:42:03.987Z,11.30
2022-10-06T20:44:30.329Z,11.30
2022-10-06T20:46:56.691Z,11.26
2022-10-06T20:49:23.052Z,11.20
2022-10-06T20:51:51.076Z,11.20
2022-10-06T20:54:22.443Z,11.16
2022-10-06T20:56:52.733Z,11.10
2022-10-06T20:59:20.683Z,11.10
2022-10-06T21:01:47.802Z,11.06
2022-10-06T21:04:16.930Z,11.00
2022-10-06T21:06:43.383Z,11.00
2022-10-06T21:09:15.970Z,11.00
2022-10-06T21:11:43.686Z,11.00
2022-10-06T21:14:11.518Z,10.92
2022-10-06T21:16:41.461Z,10.90
2022-10-06T21:19:41.733Z,10.90
2022-10-06T21:22:09.599Z,10.90
2022-10-06T21:24:37.565Z,10.82
2022-10-06T21:27:05.537Z,10.80
2022-10-06T21:29:33.431Z,10.80
2022-10-06T21:32:01.471Z,10.80
2022-10-06T21:34:29.439Z,10.70
2022-10-06T21:36:57.612Z,10.70
2022-10-06T21:39:25.376Z,10.60
2022-10-06T21:41:53.247Z,10.50
2022-10-06T21:44:21.324Z,10.50
2022-10-06T21:46:52.353Z,10.50
2022-10-06T21:49:24.836Z,10.40
2022-10-06T21:51:54.571Z,10.40
2022-10-06T21:54:23.333Z,10.40
2022-10-06T21:56:51.709Z,10.40
2022-10-06T21:59:19.579Z,10.40
2022-10-06T22:01:48.105Z,10.32
2022-10-06T22:04:16.429Z,10.30
2022-10-06T22:06:45.138Z,10.30
2022-10-06T22:09:15.552Z,10.30
2022-10-06T22:11:43.619Z,10.30
2022-10-06T22:14:13.935Z,10.20
2022-10-06T22:16:41.908Z,10.20
2022-10-06T22:19:11.289Z,10.20
2022-10-06T22:21:41.429Z,10.10
2022-10-06T22:24:18.262Z,10.10
2022-10-06T22:26:46.159Z,10.10
2022-10-06T22:29:16.583Z,10.04
2022-10-06T22:31:46.007Z,10.10
2022-10-06T22:34:16.058Z,10.10
2022-10-06T22:36:43.881Z,10.10
2022-10-06T22:39:11.750Z,10.10
2022-10-06T22:41:39.616Z,10.10
2022-10-06T22:44:07.687Z,10.10
2022-10-06T22:46:36.202Z,10.10
2022-10-06T22:49:05.059Z,10.10
2022-10-06T22:51:33.234Z,10.08
2022-10-06T22:54:01.415Z,10.00
2022-10-06T22:56:31.700Z,10.00
2022-10-06T22:59:00.342Z,10.00
2022-10-06T23:01:29.514Z,9.90
2022-10-06T23:03:58.316Z,9.90
2022-10-06T23:06:26.573Z,9.90
2022-10-06T23:08:54.436Z,9.80
2022-10-06T23:11:22.752Z,9.80
2022-10-06T23:13:50.809Z,9.80
2022-10-06T23:16:19.685Z,9.74
2022-10-06T23:18:47.866Z,9.70
2022-10-06T23:21:24.415Z,9.70
2022-10-06T23:23:58.943Z,9.70
2022-10-06T23:26:28.843Z,9.60
2022-10-06T23:28:59.401Z,9.60
2022-10-06T23:31:28.471Z,9.60
2022-10-06T23:33:56.553Z,9.60
2022-10-06T23:36:24.552Z,9.60
2022-10-06T23:38:52.496Z,9.60
2022-10-06T23:41:20.765Z,9.60
2022-10-06T23:43:49.039Z,9.54
2022-10-06T23:46:17.010Z,9.50
2022-10-06T23:48:44.978Z,9.50
2022-10-06T23:51:15.442Z,9.40
2022-10-06T23:53:43.785Z,9.40
2022-10-06T23:56:12.170Z,9.40
2022-10-06T23:58:41.853Z,9.40
